SVA41 OEJN-KLAX
Flight info
| Callsign | SVA41 |
|---|---|
| Flight time | N/A |
| Altitude | 28000 |
| Route | MIGDA L677 PASUM/N0501F300 L677 CVO L617 NOZ L551 ANTAR UN133 ATFIR DCT LOMOS DCT BUDOP DCT BABKO/N0494F320 DCT POKEN DCT NERDO DCT GUNPA/M084F320 DCT 64N010W/M084F340 66N020W 6730N03000W 68N040W 68N050W DCT DARUB/N0488F340 DCT 6530N07000W 6330N08000W/N0478F360 5930N09000W DCT YGX DCT AMENU DCT ISN DCT MLS DCT BPI/N0482F380 DCT ODUCE J202 FFU DCT WINEN DCT OVETO J107 BLD DCT TNP DCT SEAVU |
| Aircraft | B77W/H-SDE1E2E3FGHIJ2J3J4J5M1RWXY/LB1D1 |
Departure
| Time | N/A |
|---|---|
| Airport | King Abdulaziz International Airport (OEJN) |
Arrival
| Time | 2026-04-26 15:32 |
|---|---|
| Airport | Los Angeles International Airport (KLAX) |
| Time | Latitude | Longitude | Altitude | Speed | Heading |
|---|---|---|---|---|---|
| 2026-04-26 10:41 | 61.10123 | -86.50809 | 36395 ft | 449 kts | 224° |
| 2026-04-26 10:42 | 61.06002 | -86.60512 | 36408 ft | 450 kts | 223° |
| 2026-04-26 10:42 | 61.01866 | -86.70204 | 36392 ft | 450 kts | 223° |
| 2026-04-26 10:43 | 60.97718 | -86.79883 | 36393 ft | 451 kts | 223° |
| 2026-04-26 10:43 | 60.93555 | -86.89554 | 36380 ft | 451 kts | 223° |
| 2026-04-26 10:44 | 60.89383 | -86.99206 | 36380 ft | 452 kts | 223° |
| 2026-04-26 10:44 | 60.85204 | -87.08835 | 36380 ft | 452 kts | 223° |
| 2026-04-26 10:45 | 60.81016 | -87.18441 | 36369 ft | 452 kts | 223° |
| 2026-04-26 10:45 | 60.76822 | -87.28023 | 36396 ft | 452 kts | 222° |
| 2026-04-26 10:46 | 60.72619 | -87.37583 | 36372 ft | 452 kts | 222° |
| 2026-04-26 10:46 | 60.68410 | -87.47118 | 36363 ft | 452 kts | 222° |
| 2026-04-26 10:47 | 60.64216 | -87.56577 | 36353 ft | 452 kts | 222° |
| 2026-04-26 10:47 | 60.59963 | -87.66130 | 36345 ft | 452 kts | 222° |
| 2026-04-26 10:48 | 60.55758 | -87.75534 | 36345 ft | 452 kts | 222° |
| 2026-04-26 10:48 | 60.51520 | -87.84973 | 36342 ft | 452 kts | 221° |
| 2026-04-26 10:49 | 60.47276 | -87.94385 | 36331 ft | 452 kts | 221° |
| 2026-04-26 10:49 | 60.43019 | -88.03786 | 36331 ft | 453 kts | 221° |
| 2026-04-26 10:50 | 60.39469 | -88.11596 | 36341 ft | 454 kts | 221° |
| 2026-04-26 10:50 | 60.34456 | -88.22580 | 36316 ft | 455 kts | 221° |
| 2026-04-26 10:51 | 60.27994 | -88.36660 | 36319 ft | 456 kts | 221° |
| 2026-04-26 10:52 | 60.23674 | -88.46025 | 36305 ft | 457 kts | 221° |
| 2026-04-26 10:52 | 60.19343 | -88.55376 | 36306 ft | 457 kts | 221° |
| 2026-04-26 10:53 | 60.15006 | -88.64698 | 36311 ft | 457 kts | 221° |
| 2026-04-26 10:53 | 60.10644 | -88.74032 | 36298 ft | 460 kts | 221° |
| 2026-04-26 10:54 | 60.04055 | -88.88065 | 36291 ft | 462 kts | 221° |
| 2026-04-26 10:54 | 59.99638 | -88.97422 | 36283 ft | 463 kts | 221° |
| 2026-04-26 10:55 | 59.95207 | -89.06773 | 36284 ft | 464 kts | 221° |
| 2026-04-26 10:55 | 59.91516 | -89.14531 | 36278 ft | 464 kts | 221° |
| 2026-04-26 10:56 | 59.86350 | -89.25344 | 36290 ft | 464 kts | 221° |
| 2026-04-26 10:56 | 59.81866 | -89.34687 | 36274 ft | 464 kts | 221° |
| 2026-04-26 10:57 | 59.77434 | -89.43884 | 36264 ft | 464 kts | 221° |
| 2026-04-26 10:57 | 59.72975 | -89.53099 | 36261 ft | 464 kts | 221° |
| 2026-04-26 10:58 | 59.68505 | -89.62301 | 36250 ft | 463 kts | 220° |
| 2026-04-26 10:58 | 59.64031 | -89.71472 | 36250 ft | 463 kts | 220° |
| 2026-04-26 10:59 | 59.59555 | -89.80609 | 36261 ft | 463 kts | 221° |
| 2026-04-26 10:59 | 59.55063 | -89.89746 | 36250 ft | 464 kts | 220° |
| 2026-04-26 11:00 | 59.50561 | -89.98856 | 36266 ft | 464 kts | 220° |
| 2026-04-26 11:00 | 59.45737 | -90.07269 | 36246 ft | 464 kts | 216° |
| 2026-04-26 11:01 | 59.40784 | -90.15447 | 36238 ft | 466 kts | 216° |
| 2026-04-26 11:01 | 59.35815 | -90.23655 | 36228 ft | 468 kts | 216° |
| 2026-04-26 11:02 | 59.30837 | -90.31887 | 36237 ft | 469 kts | 216° |
| 2026-04-26 11:02 | 59.25843 | -90.40127 | 36207 ft | 470 kts | 216° |
| 2026-04-26 11:03 | 59.20845 | -90.48344 | 36212 ft | 470 kts | 216° |
| 2026-04-26 11:03 | 59.15843 | -90.56533 | 36206 ft | 469 kts | 216° |
| 2026-04-26 11:04 | 59.10843 | -90.64684 | 36220 ft | 469 kts | 216° |
| 2026-04-26 11:04 | 59.05838 | -90.72809 | 36204 ft | 469 kts | 216° |
| 2026-04-26 11:05 | 59.00820 | -90.80925 | 36203 ft | 470 kts | 215° |
| 2026-04-26 11:05 | 58.95790 | -90.89028 | 36194 ft | 470 kts | 215° |
| 2026-04-26 11:06 | 58.91604 | -90.95747 | 36190 ft | 471 kts | 215° |
| 2026-04-26 11:06 | 58.85706 | -91.05177 | 36185 ft | 471 kts | 215° |
| 2026-04-26 11:07 | 58.80653 | -91.13223 | 36180 ft | 471 kts | 215° |
| 2026-04-26 11:07 | 58.75594 | -91.21249 | 36180 ft | 471 kts | 215° |
| 2026-04-26 11:08 | 58.70528 | -91.29254 | 36186 ft | 472 kts | 215° |
| 2026-04-26 11:08 | 58.65446 | -91.37249 | 36176 ft | 472 kts | 215° |
| 2026-04-26 11:09 | 58.60352 | -91.45233 | 36172 ft | 473 kts | 215° |
| 2026-04-26 11:09 | 58.55284 | -91.53146 | 36164 ft | 473 kts | 215° |
| 2026-04-26 11:10 | 58.50173 | -91.61098 | 36164 ft | 473 kts | 215° |
| 2026-04-26 11:10 | 58.45058 | -91.69023 | 36176 ft | 474 kts | 215° |
| 2026-04-26 11:11 | 58.39935 | -91.76932 | 36160 ft | 474 kts | 215° |
| 2026-04-26 11:11 | 58.34808 | -91.84816 | 36154 ft | 473 kts | 215° |
| 2026-04-26 11:12 | 58.30543 | -91.91351 | 36158 ft | 474 kts | 215° |
| 2026-04-26 11:12 | 58.25402 | -91.99199 | 36161 ft | 474 kts | 215° |
| 2026-04-26 11:13 | 58.20253 | -92.07030 | 36153 ft | 475 kts | 215° |
| 2026-04-26 11:13 | 58.15096 | -92.14844 | 36152 ft | 475 kts | 215° |
| 2026-04-26 11:14 | 58.09926 | -92.22648 | 36151 ft | 475 kts | 215° |
| 2026-04-26 11:14 | 58.04749 | -92.30432 | 36148 ft | 476 kts | 215° |
| 2026-04-26 11:15 | 57.99567 | -92.38195 | 36139 ft | 476 kts | 215° |
| 2026-04-26 11:15 | 57.94381 | -92.45934 | 36169 ft | 476 kts | 215° |
| 2026-04-26 11:16 | 57.89184 | -92.53659 | 36150 ft | 477 kts | 215° |
| 2026-04-26 11:16 | 57.83974 | -92.61375 | 36143 ft | 477 kts | 215° |
| 2026-04-26 11:17 | 57.78757 | -92.69070 | 36135 ft | 477 kts | 215° |
| 2026-04-26 11:17 | 57.73536 | -92.76745 | 36135 ft | 477 kts | 215° |
| 2026-04-26 11:18 | 57.68313 | -92.84392 | 36132 ft | 477 kts | 215° |
| 2026-04-26 11:18 | 57.63088 | -92.92015 | 36132 ft | 477 kts | 215° |
| 2026-04-26 11:19 | 57.57861 | -92.99611 | 36138 ft | 476 kts | 215° |
| 2026-04-26 11:19 | 57.52664 | -93.07135 | 36123 ft | 476 kts | 215° |
| 2026-04-26 11:20 | 57.48276 | -93.13466 | 36123 ft | 476 kts | 215° |
| 2026-04-26 11:20 | 57.42187 | -93.22219 | 36122 ft | 476 kts | 215° |
| 2026-04-26 11:21 | 57.36945 | -93.29725 | 36124 ft | 476 kts | 214° |
| 2026-04-26 11:21 | 57.31697 | -93.37210 | 36126 ft | 476 kts | 214° |
| 2026-04-26 11:22 | 57.26448 | -93.44671 | 36117 ft | 476 kts | 214° |
| 2026-04-26 11:22 | 57.21196 | -93.52109 | 36119 ft | 475 kts | 214° |
| 2026-04-26 11:23 | 57.15942 | -93.59520 | 36128 ft | 476 kts | 214° |
| 2026-04-26 11:23 | 57.10678 | -93.66919 | 36122 ft | 476 kts | 214° |
| 2026-04-26 11:24 | 57.05409 | -93.74298 | 36120 ft | 476 kts | 214° |
| 2026-04-26 11:24 | 57.00135 | -93.81657 | 36116 ft | 476 kts | 214° |
| 2026-04-26 11:25 | 56.94855 | -93.88998 | 36108 ft | 476 kts | 214° |
| 2026-04-26 11:25 | 56.89577 | -93.96310 | 36109 ft | 476 kts | 214° |
| 2026-04-26 11:26 | 56.84294 | -94.03601 | 36102 ft | 475 kts | 214° |
| 2026-04-26 11:26 | 56.79013 | -94.10863 | 36120 ft | 475 kts | 214° |
| 2026-04-26 11:27 | 56.73721 | -94.18114 | 36104 ft | 476 kts | 214° |
| 2026-04-26 11:27 | 56.68458 | -94.25300 | 36095 ft | 476 kts | 214° |
| 2026-04-26 11:28 | 56.63152 | -94.32519 | 36090 ft | 476 kts | 214° |
| 2026-04-26 11:28 | 56.57842 | -94.39717 | 36090 ft | 476 kts | 214° |
| 2026-04-26 11:29 | 56.52526 | -94.46899 | 36087 ft | 476 kts | 214° |
| 2026-04-26 11:29 | 56.47209 | -94.54057 | 36095 ft | 476 kts | 214° |
| 2026-04-26 11:30 | 56.42750 | -94.60040 | 36081 ft | 476 kts | 214° |
| 2026-04-26 11:30 | 56.36560 | -94.68317 | 36082 ft | 477 kts | 214° |
| 2026-04-26 11:31 | 56.31309 | -94.74824 | 36055 ft | 475 kts | 211° |
| 2026-04-26 11:31 | 56.25767 | -94.81310 | 36053 ft | 475 kts | 210° |
| 2026-04-26 11:32 | 56.20219 | -94.87779 | 36072 ft | 475 kts | 211° |
| 2026-04-26 11:32 | 56.14675 | -94.94256 | 36065 ft | 476 kts | 211° |
| 2026-04-26 11:33 | 56.09129 | -95.00728 | 36065 ft | 476 kts | 211° |
| 2026-04-26 11:33 | 56.03582 | -95.07185 | 36065 ft | 476 kts | 210° |
| 2026-04-26 11:34 | 55.98032 | -95.13620 | 36057 ft | 476 kts | 210° |
| 2026-04-26 11:34 | 55.92478 | -95.20037 | 36058 ft | 476 kts | 210° |
| 2026-04-26 11:35 | 55.86921 | -95.26433 | 36049 ft | 476 kts | 210° |
| 2026-04-26 11:35 | 55.82299 | -95.31738 | 36049 ft | 475 kts | 210° |
| 2026-04-26 11:36 | 55.75796 | -95.39174 | 36042 ft | 475 kts | 210° |
| 2026-04-26 11:36 | 55.70231 | -95.45515 | 36043 ft | 475 kts | 210° |
| 2026-04-26 11:37 | 55.64700 | -95.51796 | 36045 ft | 475 kts | 210° |
| 2026-04-26 11:37 | 55.59128 | -95.58101 | 36056 ft | 476 kts | 210° |
| 2026-04-26 11:38 | 55.53543 | -95.64398 | 36036 ft | 476 kts | 210° |
| 2026-04-26 11:38 | 55.47951 | -95.70684 | 36040 ft | 477 kts | 210° |
| 2026-04-26 11:39 | 55.42346 | -95.76962 | 36039 ft | 478 kts | 210° |
| 2026-04-26 11:39 | 55.36736 | -95.83223 | 36041 ft | 478 kts | 210° |
| 2026-04-26 11:40 | 55.31121 | -95.89470 | 36026 ft | 478 kts | 210° |
| 2026-04-26 11:40 | 55.25507 | -95.95695 | 36044 ft | 477 kts | 210° |
| 2026-04-26 11:42 | 55.03027 | -96.20408 | 36037 ft | 478 kts | 210° |
| 2026-04-26 11:43 | 54.97396 | -96.26546 | 36041 ft | 478 kts | 210° |
| 2026-04-26 11:43 | 54.91759 | -96.32671 | 36038 ft | 478 kts | 210° |
| 2026-04-26 11:44 | 54.86121 | -96.38776 | 36042 ft | 478 kts | 210° |
| 2026-04-26 11:44 | 54.80480 | -96.44864 | 36043 ft | 477 kts | 210° |
| 2026-04-26 11:45 | 54.74839 | -96.50931 | 36057 ft | 477 kts | 210° |
| 2026-04-26 11:45 | 54.69191 | -96.56987 | 36043 ft | 478 kts | 210° |
| 2026-04-26 11:46 | 54.63538 | -96.63028 | 36043 ft | 478 kts | 210° |
| 2026-04-26 11:46 | 54.57917 | -96.69014 | 36042 ft | 478 kts | 210° |
| 2026-04-26 11:47 | 54.52254 | -96.75024 | 36040 ft | 478 kts | 211° |
| 2026-04-26 11:47 | 54.46591 | -96.81016 | 36037 ft | 478 kts | 210° |
| 2026-04-26 11:48 | 54.40933 | -96.86984 | 36035 ft | 477 kts | 210° |
| 2026-04-26 11:48 | 54.35271 | -96.92935 | 36035 ft | 477 kts | 210° |
| 2026-04-26 11:49 | 54.29606 | -96.98870 | 36038 ft | 478 kts | 210° |
| 2026-04-26 11:49 | 54.23938 | -97.04788 | 36038 ft | 477 kts | 211° |
| 2026-04-26 11:50 | 54.18267 | -97.10691 | 36037 ft | 477 kts | 211° |
| 2026-04-26 11:50 | 54.12600 | -97.16571 | 36037 ft | 477 kts | 211° |
| 2026-04-26 11:51 | 54.06932 | -97.22432 | 36035 ft | 476 kts | 210° |
| 2026-04-26 11:51 | 54.01266 | -97.28272 | 36034 ft | 476 kts | 211° |
| 2026-04-26 11:52 | 53.96559 | -97.33110 | 36035 ft | 475 kts | 211° |
| 2026-04-26 11:52 | 53.89947 | -97.39884 | 36039 ft | 475 kts | 211° |
| 2026-04-26 11:53 | 53.84288 | -97.45662 | 36032 ft | 475 kts | 211° |
| 2026-04-26 11:54 | 53.75793 | -97.54299 | 36005 ft | 475 kts | 211° |
| 2026-04-26 11:54 | 53.70130 | -97.60034 | 36017 ft | 474 kts | 211° |
| 2026-04-26 11:55 | 53.64507 | -97.65711 | 36020 ft | 474 kts | 211° |
| 2026-04-26 11:55 | 53.58852 | -97.71403 | 36029 ft | 473 kts | 211° |
| 2026-04-26 11:56 | 53.53196 | -97.77078 | 36028 ft | 473 kts | 211° |
| 2026-04-26 11:56 | 53.47539 | -97.82735 | 36025 ft | 473 kts | 211° |
| 2026-04-26 11:57 | 53.41878 | -97.88378 | 36028 ft | 473 kts | 211° |
| 2026-04-26 11:57 | 53.36222 | -97.94001 | 36026 ft | 473 kts | 211° |
| 2026-04-26 11:58 | 53.30565 | -97.99606 | 36027 ft | 472 kts | 211° |
| 2026-04-26 11:58 | 53.24904 | -98.05196 | 36021 ft | 472 kts | 211° |
| 2026-04-26 11:59 | 53.19249 | -98.10765 | 36021 ft | 472 kts | 211° |
| 2026-04-26 11:59 | 53.13587 | -98.16322 | 36027 ft | 472 kts | 211° |
| 2026-04-26 12:00 | 53.07925 | -98.21863 | 36025 ft | 473 kts | 211° |
| 2026-04-26 12:00 | 53.03208 | -98.26466 | 36030 ft | 473 kts | 210° |
| 2026-04-26 12:01 | 52.97528 | -98.31992 | 36030 ft | 473 kts | 210° |
| 2026-04-26 12:01 | 52.91845 | -98.37504 | 36029 ft | 473 kts | 211° |
| 2026-04-26 12:02 | 52.86171 | -98.42992 | 36029 ft | 472 kts | 211° |
| 2026-04-26 12:02 | 52.80493 | -98.48466 | 36037 ft | 472 kts | 211° |
| 2026-04-26 12:03 | 52.74824 | -98.53915 | 36043 ft | 471 kts | 211° |
| 2026-04-26 12:03 | 52.69154 | -98.59348 | 36039 ft | 471 kts | 211° |
| 2026-04-26 12:04 | 52.63483 | -98.64766 | 36051 ft | 471 kts | 211° |
| 2026-04-26 12:04 | 52.57811 | -98.70169 | 36056 ft | 471 kts | 211° |
| 2026-04-26 12:05 | 52.52138 | -98.75556 | 36055 ft | 471 kts | 211° |
| 2026-04-26 12:05 | 52.46463 | -98.80929 | 36061 ft | 471 kts | 211° |
| 2026-04-26 12:06 | 52.40785 | -98.86289 | 36055 ft | 471 kts | 211° |
| 2026-04-26 12:06 | 52.35112 | -98.91626 | 36059 ft | 470 kts | 211° |
| 2026-04-26 12:07 | 52.29445 | -98.96943 | 36071 ft | 470 kts | 211° |
| 2026-04-26 12:07 | 52.23776 | -99.02247 | 36064 ft | 470 kts | 211° |
| 2026-04-26 12:08 | 52.18105 | -99.07537 | 36065 ft | 469 kts | 211° |
| 2026-04-26 12:08 | 52.12439 | -99.12805 | 36059 ft | 468 kts | 211° |
| 2026-04-26 12:09 | 52.06823 | -99.18012 | 36066 ft | 468 kts | 211° |
| 2026-04-26 12:09 | 52.01170 | -99.23239 | 36072 ft | 467 kts | 211° |
| 2026-04-26 12:10 | 51.95520 | -99.28446 | 36069 ft | 467 kts | 211° |
| 2026-04-26 12:10 | 51.89871 | -99.33638 | 36055 ft | 466 kts | 211° |
| 2026-04-26 12:11 | 51.84227 | -99.38809 | 36061 ft | 466 kts | 211° |
| 2026-04-26 12:11 | 51.78588 | -99.43963 | 36065 ft | 465 kts | 211° |
| 2026-04-26 12:12 | 51.72951 | -99.49100 | 36065 ft | 465 kts | 211° |
| 2026-04-26 12:12 | 51.67311 | -99.54224 | 36070 ft | 465 kts | 211° |
| 2026-04-26 12:13 | 51.61668 | -99.59335 | 36070 ft | 465 kts | 211° |
| 2026-04-26 12:13 | 51.56028 | -99.64430 | 36063 ft | 465 kts | 211° |
| 2026-04-26 12:14 | 51.50385 | -99.69513 | 36062 ft | 465 kts | 211° |
| 2026-04-26 12:14 | 51.44736 | -99.74587 | 36066 ft | 465 kts | 211° |
| 2026-04-26 12:15 | 51.39085 | -99.79647 | 36059 ft | 465 kts | 212° |
| 2026-04-26 12:15 | 51.33436 | -99.84692 | 36063 ft | 465 kts | 212° |
| 2026-04-26 12:16 | 51.27789 | -99.89721 | 36045 ft | 465 kts | 212° |
| 2026-04-26 12:16 | 51.22140 | -99.94739 | 36034 ft | 465 kts | 212° |
| 2026-04-26 12:17 | 51.16489 | -99.99746 | 36035 ft | 465 kts | 211° |
| 2026-04-26 12:17 | 51.10900 | -100.04884 | 36016 ft | 462 kts | 216° |
| 2026-04-26 12:18 | 51.05891 | -100.11209 | 36028 ft | 459 kts | 224° |
| 2026-04-26 12:18 | 51.01160 | -100.17920 | 36033 ft | 459 kts | 224° |
| 2026-04-26 12:19 | 50.96375 | -100.24639 | 36048 ft | 459 kts | 223° |
| 2026-04-26 12:19 | 50.91575 | -100.31333 | 36057 ft | 460 kts | 223° |
| 2026-04-26 12:20 | 50.86766 | -100.38011 | 36075 ft | 460 kts | 223° |
| 2026-04-26 12:20 | 50.81965 | -100.44659 | 36083 ft | 458 kts | 223° |
| 2026-04-26 12:21 | 50.77179 | -100.51266 | 36082 ft | 456 kts | 223° |
| 2026-04-26 12:21 | 50.72406 | -100.57840 | 36087 ft | 455 kts | 223° |
| 2026-04-26 12:22 | 50.67639 | -100.64386 | 36087 ft | 454 kts | 223° |
| 2026-04-26 12:22 | 50.62878 | -100.70908 | 36093 ft | 453 kts | 223° |
| 2026-04-26 12:23 | 50.58111 | -100.77419 | 36101 ft | 454 kts | 223° |
| 2026-04-26 12:23 | 50.53337 | -100.83921 | 36095 ft | 454 kts | 223° |
| 2026-04-26 12:24 | 50.48552 | -100.90418 | 36098 ft | 455 kts | 223° |
| 2026-04-26 12:24 | 50.43757 | -100.96913 | 36098 ft | 456 kts | 223° |
| 2026-04-26 12:25 | 50.36547 | -101.06643 | 36097 ft | 456 kts | 223° |
| 2026-04-26 12:25 | 50.31734 | -101.13117 | 36090 ft | 456 kts | 223° |
| 2026-04-26 12:26 | 50.26914 | -101.19581 | 36092 ft | 456 kts | 222° |
| 2026-04-26 12:26 | 50.22123 | -101.25989 | 36102 ft | 457 kts | 222° |
| 2026-04-26 12:27 | 50.17294 | -101.32431 | 36095 ft | 457 kts | 222° |
| 2026-04-26 12:27 | 50.12459 | -101.38861 | 36098 ft | 457 kts | 222° |
| 2026-04-26 12:28 | 50.07621 | -101.45279 | 36076 ft | 457 kts | 222° |
| 2026-04-26 12:28 | 50.02785 | -101.51678 | 36098 ft | 456 kts | 222° |
| 2026-04-26 12:29 | 49.97944 | -101.58064 | 36100 ft | 457 kts | 222° |
| 2026-04-26 12:30 | 49.90671 | -101.67626 | 36101 ft | 457 kts | 222° |
| 2026-04-26 12:30 | 49.85816 | -101.73987 | 36104 ft | 457 kts | 222° |
| 2026-04-26 12:31 | 49.78528 | -101.83505 | 36105 ft | 457 kts | 222° |
| 2026-04-26 12:31 | 49.73669 | -101.89829 | 36100 ft | 456 kts | 222° |
| 2026-04-26 12:32 | 49.68807 | -101.96138 | 36113 ft | 456 kts | 222° |
| 2026-04-26 12:33 | 49.61515 | -102.05571 | 36113 ft | 456 kts | 222° |
| 2026-04-26 12:33 | 49.56651 | -102.11841 | 36117 ft | 456 kts | 222° |
| 2026-04-26 12:34 | 49.51788 | -102.18093 | 36117 ft | 455 kts | 222° |
| 2026-04-26 12:34 | 49.46929 | -102.24324 | 36117 ft | 455 kts | 221° |
| 2026-04-26 12:35 | 49.42071 | -102.30536 | 36113 ft | 454 kts | 221° |
| 2026-04-26 12:35 | 49.37215 | -102.36730 | 36116 ft | 454 kts | 221° |
| 2026-04-26 12:36 | 49.32359 | -102.42908 | 36119 ft | 453 kts | 221° |
| 2026-04-26 12:36 | 49.27534 | -102.49029 | 36107 ft | 453 kts | 221° |
| 2026-04-26 12:37 | 49.22681 | -102.55170 | 36127 ft | 452 kts | 221° |
| 2026-04-26 12:37 | 49.17829 | -102.61294 | 36088 ft | 452 kts | 221° |
| 2026-04-26 12:38 | 49.12974 | -102.67404 | 36083 ft | 452 kts | 221° |
| 2026-04-26 12:38 | 49.08119 | -102.73500 | 36081 ft | 452 kts | 221° |
| 2026-04-26 12:39 | 49.03257 | -102.79588 | 36058 ft | 452 kts | 221° |
| 2026-04-26 12:39 | 48.98395 | -102.85660 | 36086 ft | 452 kts | 221° |
| 2026-04-26 12:40 | 48.93532 | -102.91718 | 36104 ft | 452 kts | 221° |
| 2026-04-26 12:40 | 48.88666 | -102.97763 | 36116 ft | 452 kts | 221° |
| 2026-04-26 12:41 | 48.83795 | -103.03799 | 36138 ft | 452 kts | 221° |
| 2026-04-26 12:41 | 48.78922 | -103.09823 | 36128 ft | 452 kts | 221° |
| 2026-04-26 12:42 | 48.74047 | -103.15833 | 36128 ft | 451 kts | 221° |
| 2026-04-26 12:42 | 48.69174 | -103.21825 | 36130 ft | 451 kts | 221° |
| 2026-04-26 12:43 | 48.64294 | -103.27810 | 36129 ft | 451 kts | 221° |
| 2026-04-26 12:43 | 48.59417 | -103.33776 | 36137 ft | 451 kts | 221° |
| 2026-04-26 12:44 | 48.54532 | -103.39737 | 36134 ft | 451 kts | 221° |
| 2026-04-26 12:44 | 48.49680 | -103.45642 | 36111 ft | 451 kts | 221° |
| 2026-04-26 12:45 | 48.44801 | -103.51566 | 36102 ft | 450 kts | 221° |
| 2026-04-26 12:45 | 48.39923 | -103.57473 | 36076 ft | 450 kts | 221° |
| 2026-04-26 12:46 | 48.35046 | -103.63366 | 36055 ft | 450 kts | 221° |
| 2026-04-26 12:46 | 48.30169 | -103.69245 | 36046 ft | 449 kts | 221° |
| 2026-04-26 12:47 | 48.25294 | -103.75104 | 36037 ft | 449 kts | 221° |
| 2026-04-26 12:47 | 48.20447 | -103.81021 | 36048 ft | 449 kts | 221° |
| 2026-04-26 12:48 | 48.15627 | -103.86969 | 36059 ft | 449 kts | 221° |
| 2026-04-26 12:48 | 48.10808 | -103.92899 | 36086 ft | 448 kts | 221° |
| 2026-04-26 12:49 | 48.05982 | -103.98809 | 36103 ft | 448 kts | 221° |
| 2026-04-26 12:49 | 48.01965 | -104.03713 | 36125 ft | 449 kts | 221° |
| 2026-04-26 12:50 | 47.97129 | -104.09601 | 36133 ft | 449 kts | 221° |
| 2026-04-26 12:50 | 47.92289 | -104.15479 | 36141 ft | 449 kts | 221° |
| 2026-04-26 12:51 | 47.87448 | -104.21346 | 36136 ft | 448 kts | 221° |
| 2026-04-26 12:51 | 47.82605 | -104.27199 | 36137 ft | 448 kts | 221° |
| 2026-04-26 12:52 | 47.77760 | -104.33042 | 36071 ft | 448 kts | 221° |
| 2026-04-26 12:52 | 47.72914 | -104.38870 | 36063 ft | 448 kts | 221° |
| 2026-04-26 12:53 | 47.68071 | -104.44681 | 36085 ft | 447 kts | 221° |
| 2026-04-26 12:53 | 47.63231 | -104.50473 | 36093 ft | 447 kts | 221° |
| 2026-04-26 12:54 | 47.58392 | -104.56250 | 36097 ft | 447 kts | 221° |
| 2026-04-26 12:54 | 47.53550 | -104.62018 | 36108 ft | 447 kts | 221° |
| 2026-04-26 12:55 | 47.48710 | -104.67768 | 36081 ft | 446 kts | 221° |
| 2026-04-26 12:55 | 47.43872 | -104.73501 | 36082 ft | 445 kts | 221° |
| 2026-04-26 12:56 | 47.39039 | -104.79216 | 36061 ft | 445 kts | 221° |
| 2026-04-26 12:56 | 47.34209 | -104.84913 | 36048 ft | 445 kts | 221° |
| 2026-04-26 12:57 | 47.29373 | -104.90603 | 36034 ft | 445 kts | 221° |
| 2026-04-26 12:57 | 47.24538 | -104.96279 | 36031 ft | 445 kts | 221° |
| 2026-04-26 12:58 | 47.17290 | -105.04761 | 36060 ft | 443 kts | 221° |
| 2026-04-26 12:58 | 47.12495 | -105.10356 | 36074 ft | 443 kts | 221° |
| 2026-04-26 12:59 | 47.07670 | -105.15972 | 36056 ft | 443 kts | 221° |
| 2026-04-26 12:59 | 47.02843 | -105.21578 | 36062 ft | 443 kts | 221° |
| 2026-04-26 13:00 | 46.98014 | -105.27172 | 36040 ft | 442 kts | 221° |
| 2026-04-26 13:00 | 46.93195 | -105.32741 | 36046 ft | 441 kts | 221° |
| 2026-04-26 13:01 | 46.88379 | -105.38295 | 36042 ft | 441 kts | 221° |
| 2026-04-26 13:01 | 46.83563 | -105.43835 | 36037 ft | 440 kts | 221° |
| 2026-04-26 13:02 | 46.78748 | -105.49361 | 36028 ft | 440 kts | 221° |
| 2026-04-26 13:02 | 46.73932 | -105.54876 | 36028 ft | 440 kts | 221° |
| 2026-04-26 13:03 | 46.69129 | -105.60361 | 36011 ft | 438 kts | 221° |
| 2026-04-26 13:03 | 46.64340 | -105.65820 | 35997 ft | 436 kts | 221° |
| 2026-04-26 13:04 | 46.59560 | -105.71255 | 35976 ft | 436 kts | 221° |
| 2026-04-26 13:04 | 46.54786 | -105.76672 | 35965 ft | 435 kts | 221° |
| 2026-04-26 13:05 | 46.50009 | -105.82080 | 35957 ft | 435 kts | 221° |
| 2026-04-26 13:05 | 46.45238 | -105.87468 | 35945 ft | 434 kts | 221° |
| 2026-04-26 13:06 | 46.40479 | -105.92834 | 35995 ft | 433 kts | 221° |
| 2026-04-26 13:06 | 46.35752 | -105.98219 | 36001 ft | 432 kts | 222° |
| 2026-04-26 13:07 | 46.31148 | -106.03698 | 35995 ft | 431 kts | 223° |
| 2026-04-26 13:07 | 46.26529 | -106.09221 | 35998 ft | 431 kts | 223° |
| 2026-04-26 13:08 | 46.21898 | -106.14723 | 35989 ft | 431 kts | 223° |
| 2026-04-26 13:08 | 46.17265 | -106.20197 | 35997 ft | 430 kts | 223° |
| 2026-04-26 13:09 | 46.12629 | -106.25657 | 35998 ft | 430 kts | 223° |
| 2026-04-26 13:09 | 46.07989 | -106.31110 | 36000 ft | 430 kts | 223° |
| 2026-04-26 13:10 | 46.03346 | -106.36554 | 36003 ft | 430 kts | 223° |
| 2026-04-26 13:10 | 45.98698 | -106.41991 | 35979 ft | 431 kts | 223° |
| 2026-04-26 13:11 | 45.94052 | -106.47413 | 36005 ft | 430 kts | 223° |
| 2026-04-26 13:11 | 45.89406 | -106.52824 | 36007 ft | 430 kts | 223° |
| 2026-04-26 13:12 | 45.84759 | -106.58225 | 36013 ft | 430 kts | 223° |
| 2026-04-26 13:12 | 45.80107 | -106.63619 | 36010 ft | 430 kts | 222° |
| 2026-04-26 13:13 | 45.75453 | -106.69004 | 36009 ft | 430 kts | 222° |
| 2026-04-26 13:13 | 45.70796 | -106.74379 | 35994 ft | 430 kts | 223° |
| 2026-04-26 13:14 | 45.66143 | -106.79740 | 36005 ft | 429 kts | 223° |
| 2026-04-26 13:14 | 45.61517 | -106.85057 | 36008 ft | 430 kts | 223° |
| 2026-04-26 13:15 | 45.56854 | -106.90404 | 36007 ft | 430 kts | 223° |
| 2026-04-26 13:15 | 45.52945 | -106.94878 | 36006 ft | 430 kts | 223° |
| 2026-04-26 13:16 | 45.47515 | -107.01080 | 35998 ft | 431 kts | 222° |
| 2026-04-26 13:16 | 45.42837 | -107.06410 | 35999 ft | 431 kts | 222° |
| 2026-04-26 13:17 | 45.35814 | -107.14389 | 35986 ft | 431 kts | 222° |
| 2026-04-26 13:18 | 45.28779 | -107.22356 | 35989 ft | 431 kts | 222° |
| 2026-04-26 13:19 | 45.21734 | -107.30309 | 35972 ft | 431 kts | 222° |
| 2026-04-26 13:19 | 45.17035 | -107.35598 | 35972 ft | 431 kts | 222° |
| 2026-04-26 13:20 | 45.12334 | -107.40878 | 35963 ft | 431 kts | 222° |
| 2026-04-26 13:20 | 45.07631 | -107.46150 | 35937 ft | 431 kts | 222° |
| 2026-04-26 13:21 | 45.02927 | -107.51412 | 35926 ft | 431 kts | 222° |
| 2026-04-26 13:21 | 44.98220 | -107.56666 | 35892 ft | 431 kts | 221° |
| 2026-04-26 13:22 | 44.93522 | -107.61895 | 35876 ft | 430 kts | 221° |
| 2026-04-26 13:22 | 44.88819 | -107.67123 | 35857 ft | 430 kts | 221° |
| 2026-04-26 13:23 | 44.84128 | -107.72324 | 35856 ft | 429 kts | 221° |
| 2026-04-26 13:23 | 44.79437 | -107.77515 | 35856 ft | 429 kts | 221° |
| 2026-04-26 13:24 | 44.74739 | -107.82703 | 35826 ft | 429 kts | 221° |
| 2026-04-26 13:24 | 44.70070 | -107.87848 | 35842 ft | 429 kts | 221° |
| 2026-04-26 13:25 | 44.65363 | -107.93022 | 35852 ft | 430 kts | 221° |
| 2026-04-26 13:25 | 44.62996 | -107.95622 | 36034 ft | 433 kts | 221° |
| 2026-04-26 13:25 | 44.60627 | -107.98220 | 36351 ft | 432 kts | 221° |
| 2026-04-26 13:25 | 44.58259 | -108.00814 | 36696 ft | 431 kts | 221° |
| 2026-04-26 13:26 | 44.55895 | -108.03400 | 37024 ft | 431 kts | 221° |
| 2026-04-26 13:26 | 44.53529 | -108.05985 | 37308 ft | 432 kts | 221° |
| 2026-04-26 13:26 | 44.51160 | -108.08573 | 37526 ft | 432 kts | 220° |
| 2026-04-26 13:26 | 44.48786 | -108.11163 | 37752 ft | 433 kts | 220° |
| 2026-04-26 13:27 | 44.46399 | -108.13765 | 37792 ft | 436 kts | 220° |
| 2026-04-26 13:27 | 44.41616 | -108.18968 | 37844 ft | 434 kts | 220° |
| 2026-04-26 13:28 | 44.36859 | -108.24129 | 37858 ft | 431 kts | 220° |
| 2026-04-26 13:28 | 44.32128 | -108.29255 | 37873 ft | 430 kts | 220° |
| 2026-04-26 13:29 | 44.27408 | -108.34357 | 37879 ft | 429 kts | 220° |
| 2026-04-26 13:29 | 44.22690 | -108.39448 | 37897 ft | 429 kts | 220° |
| 2026-04-26 13:30 | 44.17958 | -108.44543 | 37879 ft | 430 kts | 220° |
| 2026-04-26 13:30 | 44.13214 | -108.49640 | 37881 ft | 431 kts | 220° |
| 2026-04-26 13:31 | 44.08453 | -108.54743 | 37859 ft | 433 kts | 220° |
| 2026-04-26 13:31 | 44.03679 | -108.59852 | 37834 ft | 434 kts | 219° |
| 2026-04-26 13:32 | 43.98894 | -108.64960 | 37842 ft | 434 kts | 219° |
| 2026-04-26 13:32 | 43.94103 | -108.70063 | 37847 ft | 434 kts | 219° |
| 2026-04-26 13:33 | 43.89343 | -108.75124 | 37829 ft | 434 kts | 219° |
| 2026-04-26 13:33 | 43.84553 | -108.80206 | 37832 ft | 434 kts | 219° |
| 2026-04-26 13:34 | 43.79762 | -108.85278 | 37780 ft | 433 kts | 219° |
| 2026-04-26 13:34 | 43.74977 | -108.90332 | 37795 ft | 433 kts | 219° |
| 2026-04-26 13:35 | 43.70194 | -108.95376 | 37800 ft | 433 kts | 219° |
| 2026-04-26 13:35 | 43.65400 | -109.00421 | 37801 ft | 433 kts | 219° |
| 2026-04-26 13:36 | 43.60599 | -109.05462 | 37797 ft | 434 kts | 219° |
| 2026-04-26 13:36 | 43.55785 | -109.10506 | 37773 ft | 435 kts | 219° |
| 2026-04-26 13:37 | 43.50957 | -109.15556 | 37793 ft | 436 kts | 219° |
| 2026-04-26 13:37 | 43.46933 | -109.19755 | 37801 ft | 437 kts | 219° |
| 2026-04-26 13:38 | 43.42079 | -109.24813 | 37794 ft | 438 kts | 219° |
| 2026-04-26 13:38 | 43.37216 | -109.29868 | 37774 ft | 438 kts | 219° |
| 2026-04-26 13:39 | 43.32350 | -109.34916 | 37745 ft | 438 kts | 218° |
| 2026-04-26 13:39 | 43.27488 | -109.39951 | 37763 ft | 438 kts | 218° |
| 2026-04-26 13:40 | 43.22625 | -109.44972 | 37769 ft | 438 kts | 218° |
| 2026-04-26 13:40 | 43.17755 | -109.49996 | 37772 ft | 439 kts | 218° |
| 2026-04-26 13:41 | 43.12866 | -109.55029 | 37745 ft | 440 kts | 218° |
| 2026-04-26 13:41 | 43.07961 | -109.60067 | 37739 ft | 442 kts | 218° |
| 2026-04-26 13:42 | 43.03033 | -109.65115 | 37714 ft | 443 kts | 218° |
| 2026-04-26 13:42 | 42.98101 | -109.70158 | 37723 ft | 443 kts | 218° |
| 2026-04-26 13:43 | 42.93169 | -109.75193 | 37710 ft | 443 kts | 218° |
| 2026-04-26 13:43 | 42.88239 | -109.80214 | 37788 ft | 442 kts | 218° |
| 2026-04-26 13:44 | 42.83316 | -109.85219 | 37780 ft | 441 kts | 218° |
| 2026-04-26 13:44 | 42.78429 | -109.90176 | 37783 ft | 441 kts | 218° |
| 2026-04-26 13:45 | 42.73514 | -109.95153 | 37781 ft | 441 kts | 218° |
| 2026-04-26 13:45 | 42.68592 | -110.00126 | 37771 ft | 441 kts | 218° |
| 2026-04-26 13:46 | 42.63669 | -110.05093 | 37789 ft | 441 kts | 218° |
| 2026-04-26 13:46 | 42.58739 | -110.10054 | 37782 ft | 441 kts | 218° |
| 2026-04-26 13:47 | 42.53625 | -110.14670 | 37801 ft | 442 kts | 214° |
| 2026-04-26 13:47 | 42.48425 | -110.19132 | 37777 ft | 443 kts | 214° |
| 2026-04-26 13:48 | 42.43221 | -110.23596 | 37753 ft | 443 kts | 214° |
| 2026-04-26 13:48 | 42.38015 | -110.28072 | 37709 ft | 443 kts | 214° |
| 2026-04-26 13:49 | 42.32806 | -110.32551 | 37698 ft | 444 kts | 214° |
| 2026-04-26 13:49 | 42.27592 | -110.37028 | 37666 ft | 445 kts | 214° |
| 2026-04-26 13:50 | 42.22368 | -110.41503 | 37666 ft | 445 kts | 214° |
| 2026-04-26 13:50 | 42.17141 | -110.45971 | 37663 ft | 445 kts | 214° |
| 2026-04-26 13:51 | 42.11909 | -110.50435 | 37685 ft | 445 kts | 214° |
| 2026-04-26 13:51 | 42.06675 | -110.54892 | 37698 ft | 445 kts | 214° |
| 2026-04-26 13:52 | 42.01437 | -110.59343 | 37728 ft | 445 kts | 214° |
| 2026-04-26 13:52 | 41.96193 | -110.63791 | 37651 ft | 446 kts | 214° |
| 2026-04-26 13:53 | 41.90940 | -110.68238 | 37649 ft | 446 kts | 214° |
| 2026-04-26 13:53 | 41.85687 | -110.72675 | 37666 ft | 446 kts | 214° |
| 2026-04-26 13:54 | 41.80425 | -110.77112 | 37675 ft | 447 kts | 214° |
| 2026-04-26 13:54 | 41.75152 | -110.81550 | 37678 ft | 448 kts | 214° |
| 2026-04-26 13:55 | 41.68123 | -110.87451 | 37665 ft | 449 kts | 214° |
| 2026-04-26 13:56 | 41.59318 | -110.94822 | 37682 ft | 450 kts | 214° |
| 2026-04-26 13:56 | 41.54003 | -110.99260 | 37673 ft | 451 kts | 214° |
| 2026-04-26 13:57 | 41.48682 | -111.03693 | 37671 ft | 451 kts | 214° |
| 2026-04-26 13:57 | 41.43358 | -111.08121 | 37717 ft | 451 kts | 214° |
| 2026-04-26 13:58 | 41.38038 | -111.12536 | 37727 ft | 450 kts | 214° |
| 2026-04-26 13:58 | 41.32719 | -111.16942 | 37737 ft | 450 kts | 214° |
| 2026-04-26 13:59 | 41.27404 | -111.21337 | 37726 ft | 449 kts | 214° |
| 2026-04-26 13:59 | 41.22096 | -111.25716 | 37716 ft | 449 kts | 213° |
| 2026-04-26 14:00 | 41.11495 | -111.34440 | 37678 ft | 447 kts | 213° |
| 2026-04-26 14:01 | 41.06207 | -111.38778 | 37691 ft | 447 kts | 213° |
| 2026-04-26 14:01 | 41.00916 | -111.43111 | 37666 ft | 447 kts | 213° |
| 2026-04-26 14:02 | 40.95623 | -111.47438 | 37655 ft | 447 kts | 213° |
| 2026-04-26 14:02 | 40.90333 | -111.51753 | 37665 ft | 446 kts | 213° |
| 2026-04-26 14:03 | 40.85047 | -111.56059 | 37663 ft | 446 kts | 213° |
| 2026-04-26 14:03 | 40.79757 | -111.60358 | 37656 ft | 447 kts | 213° |
| 2026-04-26 14:04 | 40.74251 | -111.64178 | 37663 ft | 448 kts | 208° |
| 2026-04-26 14:04 | 40.68646 | -111.67752 | 37671 ft | 448 kts | 208° |
| 2026-04-26 14:05 | 40.63054 | -111.71330 | 37689 ft | 447 kts | 208° |
| 2026-04-26 14:05 | 40.57463 | -111.74926 | 37698 ft | 448 kts | 208° |
| 2026-04-26 14:06 | 40.51861 | -111.78522 | 37697 ft | 448 kts | 208° |
| 2026-04-26 14:06 | 40.46252 | -111.82125 | 37689 ft | 449 kts | 208° |
| 2026-04-26 14:07 | 40.40629 | -111.85723 | 37687 ft | 450 kts | 208° |
| 2026-04-26 14:07 | 40.34996 | -111.89320 | 37710 ft | 450 kts | 208° |
| 2026-04-26 14:08 | 40.29364 | -111.92912 | 37711 ft | 450 kts | 208° |
| 2026-04-26 14:08 | 40.23764 | -111.96579 | 37696 ft | 449 kts | 210° |
| 2026-04-26 14:09 | 40.18245 | -112.00414 | 37694 ft | 449 kts | 210° |
| 2026-04-26 14:09 | 40.12739 | -112.04253 | 37680 ft | 448 kts | 210° |
| 2026-04-26 14:10 | 40.07228 | -112.08061 | 37639 ft | 448 kts | 210° |
| 2026-04-26 14:10 | 40.01749 | -112.11824 | 37608 ft | 447 kts | 210° |
| 2026-04-26 14:11 | 39.93437 | -112.17512 | 37644 ft | 449 kts | 210° |
| 2026-04-26 14:11 | 39.87936 | -112.21269 | 37639 ft | 450 kts | 210° |
| 2026-04-26 14:12 | 39.82346 | -112.25080 | 37616 ft | 451 kts | 209° |
| 2026-04-26 14:12 | 39.76833 | -112.28831 | 37627 ft | 450 kts | 209° |
| 2026-04-26 14:13 | 39.68528 | -112.34470 | 37622 ft | 449 kts | 209° |
| 2026-04-26 14:14 | 39.62999 | -112.38215 | 37622 ft | 448 kts | 209° |
| 2026-04-26 14:14 | 39.57473 | -112.41952 | 37621 ft | 448 kts | 209° |
| 2026-04-26 14:15 | 39.51944 | -112.45683 | 37608 ft | 448 kts | 209° |
| 2026-04-26 14:15 | 39.46415 | -112.49408 | 37607 ft | 448 kts | 209° |
| 2026-04-26 14:15 | 39.43649 | -112.51269 | 37733 ft | 448 kts | 209° |
| 2026-04-26 14:16 | 39.40881 | -112.53131 | 37729 ft | 449 kts | 209° |
| 2026-04-26 14:16 | 39.35335 | -112.56854 | 37605 ft | 449 kts | 209° |
| 2026-04-26 14:17 | 39.29780 | -112.60576 | 37573 ft | 450 kts | 209° |
| 2026-04-26 14:17 | 39.24223 | -112.64293 | 37592 ft | 450 kts | 209° |
| 2026-04-26 14:18 | 39.18664 | -112.68005 | 37603 ft | 450 kts | 209° |
| 2026-04-26 14:18 | 39.13105 | -112.71710 | 37602 ft | 450 kts | 209° |
| 2026-04-26 14:19 | 39.07540 | -112.75412 | 37595 ft | 450 kts | 209° |
| 2026-04-26 14:19 | 39.01974 | -112.79108 | 37595 ft | 450 kts | 209° |
| 2026-04-26 14:20 | 38.96409 | -112.82798 | 37606 ft | 450 kts | 209° |
| 2026-04-26 14:20 | 38.90831 | -112.86489 | 37591 ft | 451 kts | 209° |
| 2026-04-26 14:21 | 38.85254 | -112.90174 | 37610 ft | 451 kts | 209° |
| 2026-04-26 14:21 | 38.79710 | -112.93829 | 37581 ft | 451 kts | 209° |
| 2026-04-26 14:22 | 38.74138 | -112.97497 | 37604 ft | 450 kts | 209° |
| 2026-04-26 14:22 | 38.68568 | -113.01157 | 37608 ft | 450 kts | 209° |
| 2026-04-26 14:23 | 38.63000 | -113.04809 | 37675 ft | 450 kts | 209° |
| 2026-04-26 14:23 | 38.57434 | -113.08454 | 37704 ft | 449 kts | 209° |
| 2026-04-26 14:24 | 38.51870 | -113.12091 | 37706 ft | 449 kts | 210° |
| 2026-04-26 14:24 | 38.46306 | -113.15722 | 37721 ft | 450 kts | 210° |
| 2026-04-26 14:25 | 38.41635 | -113.18764 | 37706 ft | 450 kts | 210° |
| 2026-04-26 14:25 | 38.36090 | -113.22371 | 37686 ft | 451 kts | 210° |
| 2026-04-26 14:26 | 38.30499 | -113.26001 | 37686 ft | 451 kts | 210° |
| 2026-04-26 14:26 | 38.24900 | -113.29631 | 37644 ft | 452 kts | 209° |
| 2026-04-26 14:27 | 38.19295 | -113.33257 | 37618 ft | 452 kts | 209° |
| 2026-04-26 14:27 | 38.13689 | -113.36878 | 37616 ft | 452 kts | 209° |
| 2026-04-26 14:28 | 38.08090 | -113.40489 | 37622 ft | 451 kts | 209° |
| 2026-04-26 14:28 | 38.02490 | -113.44094 | 37616 ft | 451 kts | 210° |
| 2026-04-26 14:29 | 37.96894 | -113.47692 | 37619 ft | 451 kts | 210° |
| 2026-04-26 14:29 | 37.91308 | -113.51311 | 37628 ft | 451 kts | 211° |
| 2026-04-26 14:30 | 37.85816 | -113.55138 | 37637 ft | 450 kts | 212° |
| 2026-04-26 14:30 | 37.80348 | -113.59013 | 37617 ft | 450 kts | 212° |
| 2026-04-26 14:31 | 37.74871 | -113.62860 | 37655 ft | 450 kts | 212° |
| 2026-04-26 14:31 | 37.69387 | -113.66681 | 37659 ft | 450 kts | 212° |
| 2026-04-26 14:32 | 37.63901 | -113.70491 | 37668 ft | 450 kts | 212° |
| 2026-04-26 14:32 | 37.58409 | -113.74298 | 37670 ft | 450 kts | 212° |
| 2026-04-26 14:33 | 37.52953 | -113.78075 | 37672 ft | 450 kts | 212° |
| 2026-04-26 14:33 | 37.47468 | -113.81865 | 37681 ft | 449 kts | 212° |
| 2026-04-26 14:34 | 37.41990 | -113.85644 | 37685 ft | 449 kts | 212° |
| 2026-04-26 14:34 | 37.36511 | -113.89417 | 37677 ft | 449 kts | 212° |
| 2026-04-26 14:35 | 37.31037 | -113.93181 | 37692 ft | 448 kts | 212° |
| 2026-04-26 14:35 | 37.25570 | -113.96934 | 37684 ft | 447 kts | 212° |
| 2026-04-26 14:36 | 37.20117 | -114.00671 | 37668 ft | 446 kts | 212° |
| 2026-04-26 14:36 | 37.14676 | -114.04396 | 37670 ft | 445 kts | 212° |
| 2026-04-26 14:37 | 37.09240 | -114.08109 | 37676 ft | 445 kts | 212° |
| 2026-04-26 14:37 | 37.03804 | -114.11814 | 37679 ft | 445 kts | 212° |
| 2026-04-26 14:38 | 36.98368 | -114.15515 | 37666 ft | 445 kts | 212° |
| 2026-04-26 14:38 | 36.92928 | -114.19213 | 37672 ft | 445 kts | 212° |
| 2026-04-26 14:39 | 36.87484 | -114.22907 | 37676 ft | 445 kts | 212° |
| 2026-04-26 14:39 | 36.82034 | -114.26600 | 37671 ft | 446 kts | 212° |
| 2026-04-26 14:40 | 36.76581 | -114.30288 | 37643 ft | 446 kts | 212° |
| 2026-04-26 14:40 | 36.71132 | -114.33968 | 37667 ft | 445 kts | 212° |
| 2026-04-26 14:41 | 36.65683 | -114.37642 | 37682 ft | 445 kts | 212° |
| 2026-04-26 14:41 | 36.60224 | -114.41317 | 37672 ft | 446 kts | 212° |
| 2026-04-26 14:42 | 36.54750 | -114.44997 | 37678 ft | 448 kts | 212° |
| 2026-04-26 14:42 | 36.49255 | -114.48685 | 37670 ft | 449 kts | 212° |
| 2026-04-26 14:43 | 36.43829 | -114.52495 | 37676 ft | 447 kts | 215° |
| 2026-04-26 14:43 | 36.38554 | -114.56566 | 37680 ft | 446 kts | 216° |
| 2026-04-26 14:44 | 36.33289 | -114.60643 | 37676 ft | 446 kts | 216° |
| 2026-04-26 14:44 | 36.28018 | -114.64698 | 37687 ft | 445 kts | 216° |
| 2026-04-26 14:45 | 36.22753 | -114.68729 | 37703 ft | 443 kts | 216° |
| 2026-04-26 14:45 | 36.17506 | -114.72742 | 37733 ft | 444 kts | 216° |
| 2026-04-26 14:46 | 36.12252 | -114.76760 | 37765 ft | 444 kts | 216° |
| 2026-04-26 14:46 | 36.06991 | -114.80773 | 37781 ft | 444 kts | 216° |
| 2026-04-26 14:47 | 36.01728 | -114.84777 | 37803 ft | 444 kts | 215° |
| 2026-04-26 14:47 | 35.96158 | -114.88181 | 37765 ft | 450 kts | 206° |
| 2026-04-26 14:48 | 35.90326 | -114.91001 | 37785 ft | 450 kts | 206° |
| 2026-04-26 14:48 | 35.84504 | -114.93829 | 37778 ft | 450 kts | 207° |
| 2026-04-26 14:49 | 35.78728 | -114.96653 | 37775 ft | 450 kts | 207° |
| 2026-04-26 14:49 | 35.72877 | -114.99520 | 37792 ft | 449 kts | 207° |
| 2026-04-26 14:50 | 35.67114 | -115.02339 | 37862 ft | 448 kts | 207° |
| 2026-04-26 14:50 | 35.61340 | -115.05157 | 37825 ft | 444 kts | 208° |
| 2026-04-26 14:51 | 35.55626 | -115.07943 | 37824 ft | 440 kts | 208° |
| 2026-04-26 14:51 | 35.49956 | -115.10703 | 37823 ft | 437 kts | 208° |
| 2026-04-26 14:52 | 35.44321 | -115.13446 | 37833 ft | 435 kts | 208° |
| 2026-04-26 14:52 | 35.38703 | -115.16173 | 37828 ft | 434 kts | 208° |
| 2026-04-26 14:53 | 35.33099 | -115.18888 | 37835 ft | 432 kts | 208° |
| 2026-04-26 14:53 | 35.27508 | -115.21594 | 37835 ft | 432 kts | 208° |
| 2026-04-26 14:54 | 35.21919 | -115.24297 | 37833 ft | 432 kts | 208° |
| 2026-04-26 14:54 | 35.16327 | -115.26995 | 37854 ft | 432 kts | 208° |
| 2026-04-26 14:55 | 35.10739 | -115.29688 | 37847 ft | 432 kts | 208° |
| 2026-04-26 14:55 | 35.05150 | -115.32377 | 37854 ft | 432 kts | 208° |
| 2026-04-26 14:56 | 34.99560 | -115.35063 | 37842 ft | 432 kts | 208° |
| 2026-04-26 14:56 | 34.93963 | -115.37747 | 37806 ft | 433 kts | 208° |
| 2026-04-26 14:57 | 34.88359 | -115.40431 | 37846 ft | 433 kts | 208° |
| 2026-04-26 14:57 | 34.82744 | -115.43118 | 37850 ft | 434 kts | 208° |
| 2026-04-26 14:58 | 34.77123 | -115.45802 | 37844 ft | 434 kts | 208° |
| 2026-04-26 14:58 | 34.71494 | -115.48487 | 37824 ft | 435 kts | 208° |
| 2026-04-26 14:59 | 34.65862 | -115.51168 | 37822 ft | 434 kts | 208° |
| 2026-04-26 14:59 | 34.60246 | -115.53837 | 37830 ft | 433 kts | 208° |
| 2026-04-26 15:00 | 34.54640 | -115.56499 | 37830 ft | 432 kts | 208° |
| 2026-04-26 15:00 | 34.49044 | -115.59152 | 37833 ft | 431 kts | 208° |
| 2026-04-26 15:01 | 34.43456 | -115.61799 | 37833 ft | 431 kts | 208° |
| 2026-04-26 15:01 | 34.37879 | -115.64435 | 37833 ft | 429 kts | 209° |
| 2026-04-26 15:02 | 34.32325 | -115.67056 | 37840 ft | 427 kts | 209° |
| 2026-04-26 15:02 | 34.26796 | -115.69664 | 37849 ft | 426 kts | 209° |
| 2026-04-26 15:03 | 34.21314 | -115.72247 | 37855 ft | 426 kts | 209° |
| 2026-04-26 15:03 | 34.15986 | -115.75153 | 37848 ft | 409 kts | 223° |
| 2026-04-26 15:03 | 34.13991 | -115.77514 | 37864 ft | 399 kts | 236° |
| 2026-04-26 15:04 | 34.12433 | -115.80269 | 37879 ft | 397 kts | 241° |
| 2026-04-26 15:04 | 34.10333 | -115.86419 | 37867 ft | 401 kts | 261° |
| 2026-04-26 15:05 | 34.09877 | -115.93189 | 37910 ft | 408 kts | 263° |
| 2026-04-26 15:05 | 34.09424 | -116.00030 | 37901 ft | 407 kts | 262° |
| 2026-04-26 15:06 | 34.08938 | -116.06782 | 37928 ft | 403 kts | 262° |
| 2026-04-26 15:06 | 34.08423 | -116.13556 | 37939 ft | 408 kts | 262° |
| 2026-04-26 15:06 | 34.08156 | -116.16973 | 37772 ft | 411 kts | 262° |
| 2026-04-26 15:07 | 34.07615 | -116.23890 | 36449 ft | 413 kts | 262° |
| 2026-04-26 15:07 | 34.07345 | -116.27332 | 35639 ft | 412 kts | 262° |
| 2026-04-26 15:07 | 34.07075 | -116.30769 | 34824 ft | 412 kts | 262° |
| 2026-04-26 15:08 | 34.06803 | -116.34204 | 34012 ft | 412 kts | 262° |
| 2026-04-26 15:08 | 34.06531 | -116.37643 | 33008 ft | 413 kts | 262° |
| 2026-04-26 15:08 | 34.06257 | -116.41090 | 32209 ft | 411 kts | 262° |
| 2026-04-26 15:08 | 34.05986 | -116.44500 | 31533 ft | 407 kts | 262° |
| 2026-04-26 15:09 | 34.05715 | -116.47886 | 30875 ft | 404 kts | 262° |
| 2026-04-26 15:09 | 34.05445 | -116.51250 | 30229 ft | 402 kts | 262° |
| 2026-04-26 15:09 | 34.05176 | -116.54592 | 29526 ft | 399 kts | 262° |
| 2026-04-26 15:09 | 34.04907 | -116.57914 | 28819 ft | 396 kts | 263° |
| 2026-04-26 15:10 | 34.04639 | -116.61203 | 28191 ft | 392 kts | 263° |
| 2026-04-26 15:10 | 34.04553 | -116.62264 | 27987 ft | 391 kts | 263° |
| 2026-04-26 15:10 | 34.04198 | -116.66610 | 27151 ft | 388 kts | 263° |
| 2026-04-26 15:10 | 34.03934 | -116.69836 | 26513 ft | 385 kts | 263° |
| 2026-04-26 15:11 | 34.03672 | -116.73041 | 25906 ft | 383 kts | 263° |
| 2026-04-26 15:11 | 34.03409 | -116.76231 | 25320 ft | 381 kts | 263° |
| 2026-04-26 15:11 | 34.03145 | -116.79410 | 24726 ft | 381 kts | 263° |
| 2026-04-26 15:11 | 34.02882 | -116.82580 | 24130 ft | 380 kts | 263° |
| 2026-04-26 15:12 | 34.02617 | -116.85748 | 23529 ft | 380 kts | 263° |
| 2026-04-26 15:12 | 34.02351 | -116.88916 | 22867 ft | 380 kts | 264° |
| 2026-04-26 15:12 | 34.02087 | -116.92073 | 22223 ft | 378 kts | 264° |
| 2026-04-26 15:12 | 34.01824 | -116.95214 | 21615 ft | 375 kts | 264° |
| 2026-04-26 15:13 | 34.01562 | -116.98335 | 21027 ft | 373 kts | 264° |
| 2026-04-26 15:13 | 34.01300 | -117.01436 | 20470 ft | 371 kts | 264° |
| 2026-04-26 15:13 | 34.01038 | -117.04522 | 19896 ft | 369 kts | 264° |
| 2026-04-26 15:13 | 34.00777 | -117.07594 | 19338 ft | 368 kts | 264° |
| 2026-04-26 15:14 | 34.00518 | -117.10634 | 18755 ft | 359 kts | 264° |
| 2026-04-26 15:14 | 34.00264 | -117.13604 | 18232 ft | 356 kts | 264° |
| 2026-04-26 15:14 | 34.00010 | -117.16557 | 17877 ft | 346 kts | 264° |
| 2026-04-26 15:14 | 33.99770 | -117.19347 | 17686 ft | 328 kts | 264° |
| 2026-04-26 15:15 | 33.99534 | -117.22084 | 17030 ft | 330 kts | 264° |
| 2026-04-26 15:15 | 33.99295 | -117.24857 | 16360 ft | 334 kts | 264° |
| 2026-04-26 15:15 | 33.99053 | -117.27660 | 15762 ft | 340 kts | 264° |
| 2026-04-26 15:15 | 33.98804 | -117.30519 | 15180 ft | 344 kts | 264° |
| 2026-04-26 15:16 | 33.98553 | -117.33389 | 14637 ft | 345 kts | 264° |
| 2026-04-26 15:16 | 33.98303 | -117.36247 | 14199 ft | 341 kts | 264° |
| 2026-04-26 15:16 | 33.98058 | -117.39059 | 13846 ft | 334 kts | 264° |
| 2026-04-26 15:16 | 33.97816 | -117.41820 | 13439 ft | 329 kts | 264° |
| 2026-04-26 15:17 | 33.97577 | -117.44535 | 13025 ft | 323 kts | 264° |
| 2026-04-26 15:17 | 33.97420 | -117.46310 | 12765 ft | 320 kts | 264° |
| 2026-04-26 15:17 | 33.97385 | -117.49817 | 12197 ft | 311 kts | 281° |
| 2026-04-26 15:17 | 33.97971 | -117.52286 | 11844 ft | 304 kts | 285° |
| 2026-04-26 15:18 | 33.98582 | -117.54713 | 11450 ft | 300 kts | 285° |
| 2026-04-26 15:18 | 33.99161 | -117.57084 | 10976 ft | 290 kts | 285° |
| 2026-04-26 15:18 | 33.99713 | -117.59378 | 10516 ft | 280 kts | 284° |
| 2026-04-26 15:18 | 34.00245 | -117.61604 | 10085 ft | 273 kts | 284° |
| 2026-04-26 15:19 | 34.00762 | -117.63778 | 9641 ft | 268 kts | 284° |
| 2026-04-26 15:19 | 34.01273 | -117.65937 | 9261 ft | 268 kts | 284° |
| 2026-04-26 15:19 | 34.01777 | -117.68066 | 8863 ft | 268 kts | 284° |
| 2026-04-26 15:19 | 34.02168 | -117.70222 | 8476 ft | 260 kts | 271° |
| 2026-04-26 15:20 | 34.01999 | -117.72389 | 8169 ft | 258 kts | 262° |
| 2026-04-26 15:20 | 34.01762 | -117.74524 | 7939 ft | 257 kts | 264° |
| 2026-04-26 15:20 | 34.01547 | -117.76677 | 7601 ft | 260 kts | 263° |
| 2026-04-26 15:20 | 34.01332 | -117.78839 | 7264 ft | 259 kts | 264° |
| 2026-04-26 15:21 | 34.01122 | -117.80990 | 6966 ft | 257 kts | 264° |
| 2026-04-26 15:21 | 34.00914 | -117.83117 | 6728 ft | 253 kts | 264° |
| 2026-04-26 15:21 | 34.00710 | -117.85205 | 6514 ft | 248 kts | 264° |
| 2026-04-26 15:21 | 34.00510 | -117.87251 | 6297 ft | 243 kts | 264° |
| 2026-04-26 15:22 | 34.00318 | -117.89252 | 6085 ft | 238 kts | 265° |
| 2026-04-26 15:22 | 34.00172 | -117.91219 | 5862 ft | 234 kts | 265° |
| 2026-04-26 15:22 | 34.00013 | -117.93149 | 5642 ft | 229 kts | 264° |
| 2026-04-26 15:22 | 33.99836 | -117.95035 | 5420 ft | 224 kts | 263° |
| 2026-04-26 15:23 | 33.99653 | -117.96879 | 5211 ft | 219 kts | 264° |
| 2026-04-26 15:23 | 33.99472 | -117.98679 | 4996 ft | 213 kts | 263° |
| 2026-04-26 15:23 | 33.99294 | -118.00420 | 4864 ft | 206 kts | 263° |
| 2026-04-26 15:23 | 33.99119 | -118.02115 | 4741 ft | 201 kts | 264° |
| 2026-04-26 15:24 | 33.98951 | -118.03755 | 4721 ft | 194 kts | 264° |
| 2026-04-26 15:24 | 33.98780 | -118.05363 | 4613 ft | 194 kts | 263° |
| 2026-04-26 15:24 | 33.98618 | -118.06978 | 4433 ft | 193 kts | 264° |
| 2026-04-26 15:24 | 33.98461 | -118.08538 | 4233 ft | 182 kts | 264° |
| 2026-04-26 15:25 | 33.98311 | -118.10016 | 4084 ft | 178 kts | 264° |
| 2026-04-26 15:25 | 33.98209 | -118.10990 | 4047 ft | 176 kts | 265° |
| 2026-04-26 15:25 | 33.98010 | -118.12930 | 3941 ft | 172 kts | 264° |
| 2026-04-26 15:25 | 33.97865 | -118.14355 | 3744 ft | 171 kts | 263° |
| 2026-04-26 15:26 | 33.97720 | -118.15753 | 3574 ft | 164 kts | 263° |
| 2026-04-26 15:26 | 33.97584 | -118.17080 | 3409 ft | 155 kts | 262° |
| 2026-04-26 15:26 | 33.97451 | -118.18371 | 3295 ft | 157 kts | 264° |
| 2026-04-26 15:26 | 33.97317 | -118.19689 | 3212 ft | 158 kts | 263° |
| 2026-04-26 15:27 | 33.97185 | -118.20971 | 3086 ft | 151 kts | 263° |
| 2026-04-26 15:27 | 33.97060 | -118.22202 | 2878 ft | 147 kts | 263° |
| 2026-04-26 15:27 | 33.96934 | -118.23420 | 2771 ft | 146 kts | 263° |
| 2026-04-26 15:27 | 33.96810 | -118.24630 | 2643 ft | 145 kts | 263° |
| 2026-04-26 15:28 | 33.96686 | -118.25834 | 2506 ft | 145 kts | 263° |
| 2026-04-26 15:28 | 33.96565 | -118.27002 | 2318 ft | 138 kts | 263° |
| 2026-04-26 15:28 | 33.96449 | -118.28139 | 2127 ft | 136 kts | 263° |
| 2026-04-26 15:28 | 33.96333 | -118.29263 | 1936 ft | 135 kts | 263° |
| 2026-04-26 15:29 | 33.96218 | -118.30372 | 1769 ft | 133 kts | 263° |
| 2026-04-26 15:29 | 33.96105 | -118.31479 | 1606 ft | 133 kts | 264° |
| 2026-04-26 15:29 | 33.95873 | -118.33713 | 1260 ft | 135 kts | 263° |
| 2026-04-26 15:30 | 33.95639 | -118.35968 | 844 ft | 136 kts | 264° |
| 2026-04-26 15:30 | 33.95524 | -118.37092 | 651 ft | 133 kts | 264° |
| 2026-04-26 15:30 | 33.95415 | -118.38163 | 462 ft | 126 kts | 264° |
| 2026-04-26 15:31 | 33.95303 | -118.39274 | 293 ft | 138 kts | 262° |
| 2026-04-26 15:31 | 33.95087 | -118.41410 | 99 ft | 109 kts | 263° |
| 2026-04-26 15:31 | 33.95017 | -118.42103 | 101 ft | 51 kts | 263° |
| 2026-04-26 15:32 | 33.94883 | -118.42632 | 102 ft | 34 kts | 231° |
| 2026-04-26 15:32 | 33.94706 | -118.42772 | 106 ft | 9 kts | 188° |
| 2026-04-26 15:32 | 33.94654 | -118.42769 | 102 ft | 9 kts | 154° |
| 2026-04-26 15:33 | 33.94638 | -118.42691 | 101 ft | 12 kts | 88° |
| 2026-04-26 15:33 | 33.94650 | -118.42558 | 99 ft | 20 kts | 83° |
| 2026-04-26 15:33 | 33.94671 | -118.42359 | 99 ft | 26 kts | 83° |
| 2026-04-26 15:33 | 33.94694 | -118.42139 | 99 ft | 27 kts | 83° |
| 2026-04-26 15:34 | 33.94716 | -118.41919 | 101 ft | 26 kts | 84° |
| 2026-04-26 15:34 | 33.94733 | -118.41724 | 99 ft | 23 kts | 83° |
| 2026-04-26 15:34 | 33.94753 | -118.41537 | 99 ft | 22 kts | 83° |
| 2026-04-26 15:34 | 33.94782 | -118.41370 | 99 ft | 14 kts | 76° |
| 2026-04-26 15:35 | 33.94765 | -118.41302 | 100 ft | 9 kts | 155° |
| 2026-04-26 15:35 | 33.94698 | -118.41285 | 99 ft | 11 kts | 171° |
| 2026-04-26 15:35 | 33.94618 | -118.41272 | 99 ft | 13 kts | 173° |
| 2026-04-26 15:35 | 33.94513 | -118.41257 | 99 ft | 17 kts | 173° |
| 2026-04-26 15:36 | 33.94387 | -118.41238 | 100 ft | 18 kts | 173° |
| 2026-04-26 15:36 | 33.94295 | -118.41225 | 98 ft | 9 kts | 173° |
| 2026-04-26 15:36 | 33.94255 | -118.41179 | 99 ft | 9 kts | 92° |
| 2026-04-26 15:36 | 33.94261 | -118.41118 | 99 ft | 5 kts | 84° |
| 2026-04-26 15:37 | 33.94262 | -118.41108 | 98 ft | 0 kts | 83° |